createdAt,value
2022-10-24T00:01:45.073Z,9.89
2022-10-24T00:04:14.711Z,9.90
2022-10-24T00:06:45.570Z,9.88
2022-10-24T00:09:13.868Z,9.74
2022-10-24T00:11:43.231Z,9.72
2022-10-24T00:14:14.178Z,9.83
2022-10-24T00:16:42.457Z,10.30
2022-10-24T00:19:10.794Z,10.64
2022-10-24T00:21:43.497Z,11.37
2022-10-24T00:24:11.924Z,11.62
2022-10-24T00:26:40.403Z,11.96
2022-10-24T00:29:08.888Z,12.10
2022-10-24T00:31:37.830Z,12.06
2022-10-24T00:34:06.573Z,11.89
2022-10-24T00:36:35.165Z,11.78
2022-10-24T00:39:05.524Z,11.66
2022-10-24T00:41:35.919Z,11.35
2022-10-24T00:44:19.901Z,11.16
2022-10-24T00:46:52.126Z,11.25
2022-10-24T00:49:22.756Z,11.06
2022-10-24T00:51:54.004Z,11.02
2022-10-24T00:54:23.670Z,10.50
2022-10-24T00:57:00.398Z,10.22
2022-10-24T00:59:29.350Z,10.12
2022-10-24T01:01:57.681Z,9.99
2022-10-24T01:04:25.925Z,9.95
2022-10-24T01:07:03.720Z,9.94
2022-10-24T01:09:41.454Z,9.88
2022-10-24T01:12:23.419Z,9.90
2022-10-24T01:14:57.437Z,10.19
2022-10-24T01:17:30.879Z,10.40
2022-10-24T01:20:38.081Z,10.56
2022-10-24T01:23:17.964Z,10.28
2022-10-24T01:25:58.412Z,10.39
2022-10-24T01:28:30.796Z,10.28
2022-10-24T01:31:06.133Z,10.34
2022-10-24T01:33:38.862Z,10.37
2022-10-24T01:36:09.770Z,9.80
2022-10-24T01:38:42.634Z,9.72
2022-10-24T01:41:12.521Z,9.66
2022-10-24T01:43:43.887Z,9.63
2022-10-24T01:46:15.632Z,9.61
2022-10-24T01:48:47.141Z,9.63
2022-10-24T01:51:17.163Z,9.75
2022-10-24T01:53:46.363Z,9.76
2022-10-24T01:56:14.752Z,9.76
2022-10-24T01:58:43.014Z,9.66
2022-10-24T02:01:15.692Z,9.70
2022-10-24T02:03:47.830Z,9.78
2022-10-24T02:06:21.543Z,9.86
2022-10-24T02:08:54.675Z,9.90
2022-10-24T02:11:23.375Z,9.77
2022-10-24T02:13:53.759Z,9.72
2022-10-24T02:16:24.765Z,9.73
2022-10-24T02:18:54.739Z,9.94
2022-10-24T02:21:30.479Z,9.83
2022-10-24T02:24:02.957Z,9.79
2022-10-24T02:26:34.093Z,9.68
2022-10-24T02:29:06.107Z,9.57
2022-10-24T02:31:39.397Z,9.60
2022-10-24T02:34:08.899Z,9.62
2022-10-24T02:36:38.256Z,9.79
2022-10-24T02:39:08.632Z,9.66
2022-10-24T02:41:38.202Z,9.71
2022-10-24T02:44:07.534Z,9.73
2022-10-24T02:46:37.322Z,9.71
2022-10-24T02:49:06.270Z,9.62
2022-10-24T02:51:37.124Z,9.55
2022-10-24T02:54:05.991Z,9.41
2022-10-24T02:56:34.783Z,9.38
2022-10-24T02:59:03.099Z,9.44
2022-10-24T03:01:31.460Z,10.32
2022-10-24T03:04:01.154Z,11.50
2022-10-24T03:06:29.426Z,12.15
2022-10-24T03:09:00.221Z,12.66
2022-10-24T03:11:28.671Z,12.96
2022-10-24T03:13:56.903Z,13.10
2022-10-24T03:16:26.035Z,13.02
2022-10-24T03:18:54.322Z,12.92
2022-10-24T03:21:24.229Z,12.55
2022-10-24T03:23:52.508Z,12.38
2022-10-24T03:26:21.290Z,12.63
2022-10-24T03:28:49.927Z,12.37
2022-10-24T03:31:18.326Z,12.22
2022-10-24T03:33:46.644Z,12.08
2022-10-24T03:36:16.420Z,11.83
2022-10-24T03:38:48.413Z,11.67
2022-10-24T03:41:16.781Z,11.49
2022-10-24T03:43:45.151Z,11.38
2022-10-24T03:46:13.486Z,11.27
2022-10-24T03:48:41.709Z,11.18
2022-10-24T03:51:10.026Z,11.14
2022-10-24T03:53:38.375Z,11.27
2022-10-24T03:56:08.992Z,11.08
2022-10-24T03:58:37.245Z,11.21
2022-10-24T04:01:05.832Z,11.12
2022-10-24T04:03:34.192Z,11.37
2022-10-24T04:06:02.635Z,11.13
2022-10-24T04:08:31.055Z,11.22
2022-10-24T04:10:59.368Z,11.36
2022-10-24T04:13:29.080Z,11.59
2022-10-24T04:15:57.496Z,11.12
2022-10-24T04:18:25.903Z,11.00
2022-10-24T04:20:54.348Z,11.04
2022-10-24T04:23:22.952Z,11.13
2022-10-24T04:25:51.346Z,11.08
2022-10-24T04:28:22.000Z,11.44
2022-10-24T04:30:56.850Z,11.39
2022-10-24T04:33:25.659Z,11.51
2022-10-24T04:35:54.497Z,11.59
2022-10-24T04:38:23.188Z,12.01
2022-10-24T04:40:53.134Z,12.09
2022-10-24T04:43:22.994Z,11.82
2022-10-24T04:45:51.325Z,12.17
2022-10-24T04:48:23.785Z,12.16
2022-10-24T04:50:52.743Z,12.56
2022-10-24T04:53:21.272Z,12.48
2022-10-24T04:55:50.264Z,12.25
2022-10-24T04:58:18.564Z,12.18
2022-10-24T05:00:50.092Z,12.27
2022-10-24T05:03:18.707Z,12.40
2022-10-24T05:05:49.375Z,12.72
2022-10-24T05:08:18.173Z,12.53
2022-10-24T05:10:46.599Z,12.50
2022-10-24T05:13:15.021Z,12.24
2022-10-24T05:15:44.687Z,12.12
2022-10-24T05:18:19.012Z,12.02
2022-10-24T05:20:48.840Z,11.95
2022-10-24T05:23:17.432Z,11.98
2022-10-24T05:25:45.704Z,12.52
2022-10-24T05:28:16.895Z,12.53
2022-10-24T05:30:45.476Z,12.12
2022-10-24T05:33:14.257Z,11.93
2022-10-24T05:35:42.714Z,11.88
2022-10-24T05:38:12.412Z,11.71
2022-10-24T05:40:40.909Z,11.67
2022-10-24T05:43:09.326Z,11.49
2022-10-24T05:45:38.636Z,11.27
2022-10-24T05:48:07.556Z,10.98
2022-10-24T05:50:36.078Z,10.97
2022-10-24T05:53:04.441Z,10.87
2022-10-24T05:55:34.627Z,10.68
2022-10-24T05:58:03.181Z,10.75
2022-10-24T06:00:33.985Z,10.66
2022-10-24T06:03:02.402Z,10.49
2022-10-24T06:05:31.198Z,10.60
2022-10-24T06:08:00.461Z,10.60
2022-10-24T06:10:28.821Z,10.63
2022-10-24T06:12:58.645Z,10.63
2022-10-24T06:15:26.920Z,10.67
2022-10-24T06:17:55.344Z,10.64
2022-10-24T06:20:23.660Z,10.68
2022-10-24T06:22:52.007Z,10.57
2022-10-24T06:25:20.395Z,10.60
2022-10-24T06:27:48.719Z,10.70
2022-10-24T06:30:19.344Z,10.70
2022-10-24T06:32:48.015Z,10.67
2022-10-24T06:35:16.867Z,10.70
2022-10-24T06:37:53.169Z,10.66
2022-10-24T06:40:22.323Z,10.66
2022-10-24T06:42:50.835Z,10.66
2022-10-24T06:45:22.009Z,10.62
2022-10-24T06:47:53.229Z,10.60
2022-10-24T06:50:22.816Z,10.67
2022-10-24T06:52:51.463Z,10.55
2022-10-24T06:55:19.738Z,10.51
2022-10-24T06:57:48.350Z,10.67
2022-10-24T07:00:17.419Z,10.59
2022-10-24T07:02:47.423Z,10.64
2022-10-24T07:05:16.092Z,10.79
2022-10-24T07:07:45.324Z,11.03
2022-10-24T07:10:15.230Z,11.16
2022-10-24T07:12:44.629Z,11.28
2022-10-24T07:15:14.277Z,11.37
2022-10-24T07:17:43.006Z,11.59
2022-10-24T07:20:14.351Z,11.80
2022-10-24T07:22:43.748Z,12.04
2022-10-24T07:25:13.736Z,12.07
2022-10-24T07:27:42.083Z,12.16
2022-10-24T07:30:14.893Z,12.30
2022-10-24T07:32:43.442Z,12.35
2022-10-24T07:35:14.746Z,12.34
2022-10-24T07:37:45.604Z,12.55
2022-10-24T07:40:14.333Z,12.63
2022-10-24T07:42:43.083Z,12.88
2022-10-24T07:45:12.366Z,12.98
2022-10-24T07:47:40.643Z,13.15
2022-10-24T07:50:10.293Z,13.31
2022-10-24T07:52:39.933Z,13.45
2022-10-24T07:55:08.689Z,13.58
2022-10-24T07:57:36.920Z,13.75
2022-10-24T08:00:06.180Z,13.90
2022-10-24T08:02:40.731Z,13.90
2022-10-24T08:05:09.960Z,13.85
2022-10-24T08:07:39.787Z,14.21
2022-10-24T08:10:10.472Z,14.52
2022-10-24T08:12:38.709Z,14.83
2022-10-24T08:15:07.613Z,14.48
2022-10-24T08:17:36.493Z,14.72
2022-10-24T08:20:05.637Z,14.77
2022-10-24T08:22:34.910Z,14.67
2022-10-24T08:25:08.304Z,14.98
2022-10-24T08:27:36.842Z,15.13
2022-10-24T08:30:06.034Z,15.40
2022-10-24T08:32:34.458Z,15.52
2022-10-24T08:35:03.075Z,15.20
2022-10-24T08:37:31.466Z,15.07
2022-10-24T08:39:59.919Z,15.39
2022-10-24T08:42:29.546Z,15.26
2022-10-24T08:44:57.825Z,15.18
2022-10-24T08:47:30.821Z,15.49
2022-10-24T08:50:06.572Z,15.81
2022-10-24T08:52:38.391Z,15.86
2022-10-24T08:55:25.258Z,16.07
2022-10-24T08:57:58.207Z,15.81
2022-10-24T09:00:28.703Z,15.98
2022-10-24T09:03:01.431Z,16.00
2022-10-24T09:05:34.624Z,15.88
2022-10-24T09:08:23.651Z,16.17
2022-10-24T09:10:57.158Z,16.26
2022-10-24T09:13:29.230Z,16.32
2022-10-24T09:16:05.247Z,16.41
2022-10-24T09:18:37.910Z,16.46
2022-10-24T09:21:27.886Z,16.76
2022-10-24T09:23:56.611Z,16.91
2022-10-24T09:26:28.861Z,16.76
2022-10-24T09:28:58.683Z,16.88
2022-10-24T09:31:28.167Z,16.97
2022-10-24T09:34:00.561Z,17.21
2022-10-24T09:36:31.801Z,17.53
2022-10-24T09:39:24.093Z,17.91
2022-10-24T09:41:52.638Z,17.77
2022-10-24T09:45:20.445Z,18.08
2022-10-24T09:47:56.559Z,18.48
2022-10-24T09:50:25.658Z,18.75
2022-10-24T09:52:59.510Z,19.45
2022-10-24T09:55:31.256Z,19.71
2022-10-24T09:58:05.358Z,20.11
2022-10-24T10:01:18.602Z,20.41
2022-10-24T10:04:07.568Z,20.25
2022-10-24T10:06:44.331Z,20.68
2022-10-24T10:09:15.585Z,20.79
2022-10-24T10:12:00.716Z,20.89
2022-10-24T10:14:33.176Z,21.02
2022-10-24T10:17:03.422Z,20.71
2022-10-24T10:19:54.835Z,20.68
2022-10-24T10:22:27.188Z,20.67
2022-10-24T10:24:57.922Z,20.29
2022-10-24T10:27:36.269Z,20.13
2022-10-24T10:30:21.634Z,20.10
2022-10-24T10:33:08.877Z,20.09
2022-10-24T10:35:44.477Z,20.02
2022-10-24T10:38:26.412Z,19.92
2022-10-24T10:41:00.030Z,19.77
2022-10-24T10:43:34.913Z,19.83
2022-10-24T10:46:13.689Z,19.42
2022-10-24T10:48:50.914Z,19.52
2022-10-24T10:51:27.073Z,19.58
2022-10-24T10:54:00.965Z,19.35
2022-10-24T10:56:34.026Z,19.59
2022-10-24T10:59:14.986Z,19.45
2022-10-24T11:01:49.587Z,20.11
2022-10-24T11:04:24.559Z,19.71
2022-10-24T11:07:04.178Z,19.40
2022-10-24T11:09:35.564Z,19.31
2022-10-24T11:12:12.865Z,19.36
2022-10-24T11:14:43.748Z,19.35
2022-10-24T11:17:15.928Z,19.20
2022-10-24T11:20:02.738Z,19.42
2022-10-24T11:22:38.571Z,19.51
2022-10-24T11:25:09.928Z,19.48
2022-10-24T11:27:42.097Z,18.99
2022-10-24T11:30:15.810Z,18.87
2022-10-24T11:32:48.473Z,18.92
2022-10-24T11:35:23.664Z,19.22
2022-10-24T11:37:57.569Z,19.28
2022-10-24T11:43:01.747Z,19.19
2022-10-24T11:45:34.590Z,19.12
2022-10-24T11:48:11.911Z,19.17
2022-10-24T11:50:44.369Z,19.46
2022-10-24T11:53:22.814Z,19.41
2022-10-24T11:55:55.817Z,19.28
2022-10-24T11:58:27.269Z,19.42
2022-10-24T12:01:15.152Z,19.55
2022-10-24T12:04:04.396Z,19.68
2022-10-24T12:06:47.185Z,19.88
2022-10-24T12:09:44.642Z,19.58
2022-10-24T12:12:41.969Z,19.82
2022-10-24T12:15:19.378Z,20.03
2022-10-24T12:17:57.664Z,19.90
2022-10-24T12:20:26.925Z,20.11
2022-10-24T12:22:55.882Z,19.84
2022-10-24T12:25:32.344Z,19.79
2022-10-24T12:28:02.535Z,19.62
2022-10-24T12:30:33.302Z,19.56
2022-10-24T12:33:11.379Z,19.58
2022-10-24T12:35:49.291Z,19.42
2022-10-24T12:39:09.528Z,19.42
2022-10-24T12:41:41.907Z,19.45
2022-10-24T12:44:41.224Z,19.28
2022-10-24T12:47:39.067Z,19.14
2022-10-24T12:50:40.743Z,19.09
2022-10-24T12:53:20.337Z,18.98
2022-10-24T12:56:15.556Z,18.92
2022-10-24T12:58:47.444Z,19.01
2022-10-24T13:01:27.597Z,18.94
2022-10-24T13:04:19.715Z,18.94
2022-10-24T13:07:00.076Z,19.21
2022-10-24T13:09:34.962Z,19.16
2022-10-24T13:12:16.939Z,19.14
2022-10-24T13:14:58.509Z,19.13
2022-10-24T13:17:34.126Z,19.19
2022-10-24T13:20:08.369Z,19.34
2022-10-24T13:22:37.675Z,19.30
2022-10-24T13:25:29.840Z,19.37
2022-10-24T13:28:43.546Z,19.29
2022-10-24T13:31:48.499Z,19.34
2022-10-24T13:34:32.960Z,19.35
2022-10-24T13:37:05.625Z,19.44
2022-10-24T13:39:39.469Z,19.44
2022-10-24T13:42:22.664Z,19.40
2022-10-24T13:44:52.935Z,19.17
2022-10-24T13:47:25.688Z,19.35
2022-10-24T13:49:58.798Z,19.08
2022-10-24T13:52:32.641Z,18.87
2022-10-24T13:55:05.732Z,18.96
2022-10-24T13:57:37.576Z,19.05
2022-10-24T14:00:09.646Z,19.02
2022-10-24T14:02:42.972Z,19.25
2022-10-24T14:05:30.545Z,19.45
2022-10-24T14:07:59.177Z,19.31
2022-10-24T14:10:27.967Z,19.24
2022-10-24T14:12:58.838Z,19.14
2022-10-24T14:15:29.760Z,19.09
2022-10-24T14:18:01.794Z,19.18
2022-10-24T14:20:33.348Z,19.09
2022-10-24T14:23:01.924Z,19.08
2022-10-24T14:25:33.220Z,19.07
2022-10-24T14:28:03.928Z,19.12
2022-10-24T14:30:35.042Z,18.90
2022-10-24T14:33:24.157Z,19.03
2022-10-24T14:35:55.279Z,19.06
2022-10-24T14:38:27.589Z,19.13
2022-10-24T14:41:08.329Z,18.85
2022-10-24T14:43:40.107Z,18.95
2022-10-24T14:46:21.223Z,18.90
2022-10-24T14:48:54.958Z,18.84
2022-10-24T14:51:27.371Z,18.65
2022-10-24T14:53:56.059Z,18.50
2022-10-24T14:56:31.052Z,18.60
2022-10-24T14:59:01.212Z,18.54
2022-10-24T15:01:30.483Z,18.66
2022-10-24T15:04:02.460Z,18.68
2022-10-24T15:06:38.585Z,18.59
2022-10-24T15:09:15.864Z,18.50
2022-10-24T15:11:46.104Z,18.61
2022-10-24T15:14:32.751Z,18.78
2022-10-24T15:17:01.836Z,18.87
2022-10-24T15:19:31.602Z,18.61
2022-10-24T15:21:59.997Z,18.61
2022-10-24T15:24:28.347Z,18.33
2022-10-24T15:27:10.344Z,18.19
2022-10-24T15:29:39.247Z,18.04
2022-10-24T15:32:11.807Z,17.90
2022-10-24T15:34:41.541Z,17.72
2022-10-24T15:37:18.897Z,17.58
2022-10-24T15:39:47.244Z,17.50
2022-10-24T15:42:17.644Z,17.35
2022-10-24T15:44:49.020Z,17.19
2022-10-24T15:47:17.628Z,17.09
2022-10-24T15:49:47.529Z,16.96
2022-10-24T15:52:17.443Z,16.84
2022-10-24T15:54:45.855Z,16.76
2022-10-24T15:57:15.078Z,16.71
2022-10-24T15:59:43.297Z,16.58
2022-10-24T16:02:17.507Z,16.66
2022-10-24T16:04:47.404Z,16.43
2022-10-24T16:07:16.156Z,16.17
2022-10-24T16:09:44.719Z,16.08
2022-10-24T16:12:14.138Z,16.11
2022-10-24T16:14:42.528Z,15.95
2022-10-24T16:17:11.388Z,15.98
2022-10-24T16:19:40.322Z,15.96
2022-10-24T16:22:11.230Z,15.91
2022-10-24T16:24:41.343Z,15.76
2022-10-24T16:27:10.311Z,15.65
2022-10-24T16:29:39.032Z,15.54
2022-10-24T16:32:07.907Z,15.55
2022-10-24T16:34:36.329Z,15.51
2022-10-24T16:37:05.525Z,15.31
2022-10-24T16:39:36.446Z,15.34
2022-10-24T16:42:07.344Z,15.22
2022-10-24T16:44:37.130Z,15.15
2022-10-24T16:47:06.495Z,15.07
2022-10-24T16:49:35.791Z,15.03
2022-10-24T16:52:06.312Z,14.96
2022-10-24T16:54:36.535Z,14.91
2022-10-24T16:57:05.243Z,14.80
2022-10-24T16:59:43.650Z,14.75
2022-10-24T17:02:13.818Z,14.85
2022-10-24T17:04:44.144Z,14.87
2022-10-24T17:07:16.133Z,14.90
2022-10-24T17:09:50.489Z,14.75
2022-10-24T17:12:22.190Z,14.76
2022-10-24T17:14:58.819Z,14.86
2022-10-24T17:17:28.151Z,14.77
2022-10-24T17:20:07.188Z,14.94
2022-10-24T17:22:41.747Z,14.83
2022-10-24T17:25:21.675Z,14.92
2022-10-24T17:27:58.814Z,15.13
2022-10-24T17:30:31.213Z,15.60
2022-10-24T17:33:01.487Z,15.53
2022-10-24T17:35:32.435Z,15.35
2022-10-24T17:38:10.106Z,15.00
2022-10-24T17:40:47.039Z,15.17
2022-10-24T17:43:20.097Z,14.99
2022-10-24T17:45:52.375Z,15.03
2022-10-24T17:48:23.380Z,15.00
2022-10-24T17:50:58.131Z,15.00
2022-10-24T17:53:30.330Z,15.19
2022-10-24T17:56:06.205Z,15.20
2022-10-24T17:58:36.616Z,15.26
2022-10-24T18:01:08.391Z,15.15
2022-10-24T18:03:40.712Z,15.45
2022-10-24T18:06:15.870Z,15.77
2022-10-24T18:08:48.562Z,15.77
2022-10-24T18:11:22.870Z,15.90
2022-10-24T18:13:53.140Z,16.35
2022-10-24T18:16:26.181Z,16.65
2022-10-24T18:19:00.813Z,16.94
2022-10-24T18:21:30.442Z,16.80
2022-10-24T18:24:01.521Z,16.34
2022-10-24T18:26:45.650Z,16.10
2022-10-24T18:32:58.926Z,14.69
2022-10-24T18:35:33.808Z,14.55
2022-10-24T18:38:03.722Z,14.32
2022-10-24T18:40:38.022Z,14.53
2022-10-24T18:43:20.032Z,14.30
2022-10-24T18:45:53.184Z,14.28
2022-10-24T18:48:25.105Z,14.30
2022-10-24T18:50:59.533Z,14.15
2022-10-24T18:53:43.394Z,13.95
2022-10-24T18:56:18.624Z,14.17
2022-10-24T18:58:57.967Z,13.91
2022-10-24T19:01:34.648Z,14.11
2022-10-24T19:04:10.446Z,13.95
2022-10-24T19:06:41.605Z,13.76
2022-10-24T19:09:19.833Z,13.66
2022-10-24T19:11:51.608Z,13.43
2022-10-24T19:14:29.321Z,13.56
2022-10-24T19:17:00.657Z,13.48
2022-10-24T19:22:03.798Z,13.62
2022-10-24T19:24:35.768Z,13.67
2022-10-24T19:27:10.701Z,13.97
2022-10-24T19:29:42.545Z,13.86
2022-10-24T19:32:12.228Z,13.78
2022-10-24T19:34:43.680Z,13.67
2022-10-24T19:37:16.597Z,13.89
2022-10-24T19:39:45.355Z,13.89
2022-10-24T19:42:17.068Z,14.03
2022-10-24T19:44:54.881Z,14.02
2022-10-24T19:47:25.216Z,14.00
2022-10-24T19:49:54.260Z,13.99
2022-10-24T19:52:25.271Z,14.13
2022-10-24T19:54:55.368Z,13.95
2022-10-24T19:57:24.988Z,13.81
2022-10-24T19:59:56.610Z,13.70
2022-10-24T20:02:39.455Z,13.62
2022-10-24T20:05:10.849Z,13.68
2022-10-24T20:07:40.279Z,13.66
2022-10-24T20:10:12.251Z,13.55
2022-10-24T20:12:42.062Z,13.42
2022-10-24T20:15:14.479Z,13.25
2022-10-24T20:17:43.784Z,13.13
2022-10-24T20:20:13.447Z,13.04
2022-10-24T20:22:43.002Z,13.08
2022-10-24T20:25:12.345Z,12.89
2022-10-24T20:27:50.330Z,12.92
2022-10-24T20:30:23.961Z,12.91
2022-10-24T20:33:15.081Z,12.98
2022-10-24T20:35:44.428Z,12.86
2022-10-24T20:38:16.406Z,12.87
2022-10-24T20:40:46.562Z,12.87
2022-10-24T20:43:15.046Z,12.90
2022-10-24T20:45:45.035Z,12.89
2022-10-24T20:48:14.095Z,12.89
2022-10-24T20:50:45.306Z,12.88
2022-10-24T20:53:15.847Z,13.10
2022-10-24T20:55:45.059Z,13.09
2022-10-24T20:58:13.976Z,13.06
2022-10-24T21:00:42.726Z,12.98
2022-10-24T21:03:14.423Z,12.91
2022-10-24T21:05:44.853Z,12.80
2022-10-24T21:08:14.264Z,12.79
2022-10-24T21:10:46.990Z,12.73
2022-10-24T21:13:18.155Z,12.79
2022-10-24T21:15:47.558Z,12.81
2022-10-24T21:18:17.442Z,12.82
2022-10-24T21:20:45.709Z,12.83
2022-10-24T21:23:13.948Z,12.78
2022-10-24T21:28:10.487Z,12.71
2022-10-24T21:30:38.759Z,12.70
2022-10-24T21:33:10.664Z,12.75
2022-10-24T21:35:40.906Z,12.77
2022-10-24T21:38:09.168Z,12.81
2022-10-24T21:40:37.422Z,12.72
2022-10-24T21:43:05.667Z,12.68
2022-10-24T21:45:33.902Z,12.59
2022-10-24T21:48:02.180Z,12.63
2022-10-24T21:50:30.426Z,12.65
2022-10-24T21:53:00.439Z,12.64
2022-10-24T21:55:29.191Z,12.74
2022-10-24T21:57:57.411Z,12.83
2022-10-24T22:00:25.772Z,12.84
2022-10-24T22:02:54.236Z,12.88
2022-10-24T22:05:22.626Z,12.75
2022-10-24T22:07:51.293Z,12.70
2022-10-24T22:10:21.068Z,12.81
2022-10-24T22:12:49.425Z,12.94
2022-10-24T22:15:17.725Z,12.85
2022-10-24T22:17:46.205Z,12.76
2022-10-24T22:20:14.573Z,12.68
2022-10-24T22:22:42.785Z,12.60
2022-10-24T22:25:11.074Z,12.56
2022-10-24T22:27:40.683Z,12.54
2022-10-24T22:30:09.869Z,12.54
2022-10-24T22:32:38.424Z,12.49
2022-10-24T22:35:07.813Z,12.49
2022-10-24T22:37:36.513Z,12.43
2022-10-24T22:40:06.618Z,12.39
2022-10-24T22:42:35.179Z,12.40
2022-10-24T22:45:05.973Z,12.47
2022-10-24T22:48:05.926Z,12.96
2022-10-24T22:50:50.090Z,12.88
2022-10-24T22:53:20.146Z,12.67
2022-10-24T22:56:08.679Z,12.39
2022-10-24T22:58:37.315Z,12.25
2022-10-24T23:01:16.792Z,12.24
2022-10-24T23:04:03.649Z,12.56
2022-10-24T23:06:38.959Z,12.54
2022-10-24T23:09:07.277Z,12.59
2022-10-24T23:11:36.027Z,12.70
2022-10-24T23:14:05.211Z,12.41
2022-10-24T23:16:39.677Z,12.58
2022-10-24T23:19:16.342Z,12.42
2022-10-24T23:21:50.311Z,12.43
2022-10-24T23:24:19.443Z,12.34
2022-10-24T23:26:57.421Z,12.25
2022-10-24T23:29:31.640Z,12.20
2022-10-24T23:32:02.534Z,12.18
2022-10-24T23:34:31.674Z,12.16
2022-10-24T23:37:02.728Z,12.12
2022-10-24T23:39:33.928Z,12.16
2022-10-24T23:42:04.933Z,12.17
2022-10-24T23:44:33.756Z,12.05
2022-10-24T23:47:06.820Z,12.26
2022-10-24T23:49:37.509Z,12.32
2022-10-24T23:52:13.790Z,12.42
2022-10-24T23:54:42.655Z,12.30
2022-10-24T23:57:16.482Z,12.38
2022-10-24T23:59:45.127Z,12.35
